Archival Weather

Tokyo Intl

Tokyo, Japan (RJTT)

Report from: Friday, September 22, 2023 10:30 AM JST
Current time: Sunday, February 25, 2024 1:19 AM JST

Current weather – Weather history – Daily summaries
Weather forecast

Present weatherLight rain showers
Temperature28.0°C (82.4°F)
Heat index32.7°C (90.9°F)
Dew point25.0°C (77.0°F)
Winds 7 kts (3.6 m/s, 8.1 mph) Vrb
Winds variableWinds variable from West-Southwest (250°) to Northwest (320°)
Visibility6.2 mi. (10 km)
Clouds Few clouds 2,000 ft. (610 m)
Scattered clouds 10,000 ft. (3,048 m)
Ceiling: Broken clouds 14,000 ft. (4,267 m)
Altimeter29.83 in.Hg (1010 mB)
Relative humidity84 %
Density altitude2,028 ft. (618 m)
Remarks No significant changes expected in the next two hours
Flight conditions Visual Meteorological Conditions
Raw dataRJTT 220130Z 29007KT 250V320 9999 -SHRA FEW020 SCT100 BKN140 28/25 Q1010 NOSIG
An error has occurred. This application may no longer respond until reloaded. Reload 🗙